sensor_id;sensor_type;location;lat;lon;timestamp;P1;durP1;ratioP1;P2;durP2;ratioP2
12816;SDS011;6473;51.552;6.716;2022-11-20T00:01:12;12.30;;;8.80;;
12816;SDS011;6473;51.552;6.716;2022-11-20T00:03:40;14.07;;;9.30;;
12816;SDS011;6473;51.552;6.716;2022-11-20T00:06:08;11.07;;;8.23;;
12816;SDS011;6473;51.552;6.716;2022-11-20T00:08:37;12.73;;;8.73;;
12816;SDS011;6473;51.552;6.716;2022-11-20T00:11:04;14.00;;;8.73;;
12816;SDS011;6473;51.552;6.716;2022-11-20T00:13:31;12.40;;;9.27;;
12816;SDS011;6473;51.552;6.716;2022-11-20T00:16:01;13.07;;;8.80;;
12816;SDS011;6473;51.552;6.716;2022-11-20T00:18:28;14.93;;;10.17;;
12816;SDS011;6473;51.552;6.716;2022-11-20T00:21:00;18.10;;;9.93;;
12816;SDS011;6473;51.552;6.716;2022-11-20T00:23:27;16.40;;;9.77;;
12816;SDS011;6473;51.552;6.716;2022-11-20T00:25:54;14.40;;;9.07;;
12816;SDS011;6473;51.552;6.716;2022-11-20T00:28:21;13.90;;;9.87;;
12816;SDS011;6473;51.552;6.716;2022-11-20T00:30:49;12.47;;;8.73;;
12816;SDS011;6473;51.552;6.716;2022-11-20T00:33:19;13.90;;;9.80;;
12816;SDS011;6473;51.552;6.716;2022-11-20T00:35:46;13.63;;;9.43;;
12816;SDS011;6473;51.552;6.716;2022-11-20T00:38:13;14.93;;;9.60;;
12816;SDS011;6473;51.552;6.716;2022-11-20T00:40:40;15.67;;;9.53;;
12816;SDS011;6473;51.552;6.716;2022-11-20T00:43:07;15.10;;;10.23;;
12816;SDS011;6473;51.552;6.716;2022-11-20T00:45:35;12.33;;;9.10;;
12816;SDS011;6473;51.552;6.716;2022-11-20T00:48:02;13.03;;;8.53;;
12816;SDS011;6473;51.552;6.716;2022-11-20T00:50:30;14.43;;;9.00;;
12816;SDS011;6473;51.552;6.716;2022-11-20T00:52:58;13.77;;;9.10;;
12816;SDS011;6473;51.552;6.716;2022-11-20T00:55:25;11.63;;;8.57;;
12816;SDS011;6473;51.552;6.716;2022-11-20T00:57:52;14.50;;;9.93;;
12816;SDS011;6473;51.552;6.716;2022-11-20T01:00:19;12.60;;;9.57;;
12816;SDS011;6473;51.552;6.716;2022-11-20T01:02:47;13.33;;;9.10;;
12816;SDS011;6473;51.552;6.716;2022-11-20T01:05:14;13.00;;;9.53;;
12816;SDS011;6473;51.552;6.716;2022-11-20T01:07:42;14.27;;;9.27;;
12816;SDS011;6473;51.552;6.716;2022-11-20T01:10:09;13.47;;;9.47;;
12816;SDS011;6473;51.552;6.716;2022-11-20T01:12:36;13.83;;;9.83;;
12816;SDS011;6473;51.552;6.716;2022-11-20T01:15:04;14.43;;;10.10;;
12816;SDS011;6473;51.552;6.716;2022-11-20T01:17:33;15.73;;;9.73;;
12816;SDS011;6473;51.552;6.716;2022-11-20T01:20:00;14.30;;;9.60;;
12816;SDS011;6473;51.552;6.716;2022-11-20T01:22:27;14.10;;;9.43;;
12816;SDS011;6473;51.552;6.716;2022-11-20T01:24:56;13.53;;;9.57;;
12816;SDS011;6473;51.552;6.716;2022-11-20T01:27:23;13.60;;;8.83;;
12816;SDS011;6473;51.552;6.716;2022-11-20T01:29:55;11.87;;;8.80;;
12816;SDS011;6473;51.552;6.716;2022-11-20T01:32:25;13.07;;;9.50;;
12816;SDS011;6473;51.552;6.716;2022-11-20T01:34:52;13.53;;;9.37;;
12816;SDS011;6473;51.552;6.716;2022-11-20T01:37:19;17.03;;;10.03;;
12816;SDS011;6473;51.552;6.716;2022-11-20T01:39:47;16.40;;;10.13;;
12816;SDS011;6473;51.552;6.716;2022-11-20T01:42:15;14.57;;;9.73;;
12816;SDS011;6473;51.552;6.716;2022-11-20T01:44:59;14.57;;;9.60;;
12816;SDS011;6473;51.552;6.716;2022-11-20T01:47:29;14.53;;;9.03;;
12816;SDS011;6473;51.552;6.716;2022-11-20T01:50:01;14.47;;;9.70;;
12816;SDS011;6473;51.552;6.716;2022-11-20T01:52:33;13.83;;;9.47;;
12816;SDS011;6473;51.552;6.716;2022-11-20T01:55:05;14.87;;;8.97;;
12816;SDS011;6473;51.552;6.716;2022-11-20T01:57:36;16.03;;;9.57;;
12816;SDS011;6473;51.552;6.716;2022-11-20T02:00:05;15.33;;;9.60;;
12816;SDS011;6473;51.552;6.716;2022-11-20T02:02:42;14.77;;;9.27;;
12816;SDS011;6473;51.552;6.716;2022-11-20T02:05:12;11.63;;;8.97;;
12816;SDS011;6473;51.552;6.716;2022-11-20T02:07:44;13.30;;;9.07;;
12816;SDS011;6473;51.552;6.716;2022-11-20T02:10:12;15.07;;;10.60;;
12816;SDS011;6473;51.552;6.716;2022-11-20T02:12:40;11.97;;;9.40;;
12816;SDS011;6473;51.552;6.716;2022-11-20T02:15:25;12.80;;;9.00;;
12816;SDS011;6473;51.552;6.716;2022-11-20T02:17:52;17.57;;;9.70;;
12816;SDS011;6473;51.552;6.716;2022-11-20T02:20:19;14.17;;;9.47;;
12816;SDS011;6473;51.552;6.716;2022-11-20T02:22:48;14.83;;;9.43;;
12816;SDS011;6473;51.552;6.716;2022-11-20T02:25:22;14.03;;;9.93;;
12816;SDS011;6473;51.552;6.716;2022-11-20T02:27:52;15.50;;;10.23;;
12816;SDS011;6473;51.552;6.716;2022-11-20T02:30:19;14.03;;;9.70;;
12816;SDS011;6473;51.552;6.716;2022-11-20T02:32:46;16.63;;;10.13;;
12816;SDS011;6473;51.552;6.716;2022-11-20T02:38:09;14.23;;;9.50;;
12816;SDS011;6473;51.552;6.716;2022-11-20T02:40:38;15.50;;;9.87;;
12816;SDS011;6473;51.552;6.716;2022-11-20T02:43:04;13.47;;;9.17;;
12816;SDS011;6473;51.552;6.716;2022-11-20T02:45:31;16.13;;;9.33;;
12816;SDS011;6473;51.552;6.716;2022-11-20T02:47:59;13.50;;;8.97;;
12816;SDS011;6473;51.552;6.716;2022-11-20T02:50:26;13.93;;;9.17;;
12816;SDS011;6473;51.552;6.716;2022-11-20T02:52:53;13.97;;;9.57;;
12816;SDS011;6473;51.552;6.716;2022-11-20T02:55:20;17.10;;;10.63;;
12816;SDS011;6473;51.552;6.716;2022-11-20T02:57:48;14.53;;;10.23;;
12816;SDS011;6473;51.552;6.716;2022-11-20T03:00:15;15.43;;;10.30;;
12816;SDS011;6473;51.552;6.716;2022-11-20T03:02:43;14.00;;;10.13;;
12816;SDS011;6473;51.552;6.716;2022-11-20T03:05:10;14.10;;;9.83;;
12816;SDS011;6473;51.552;6.716;2022-11-20T03:07:37;12.80;;;9.50;;
12816;SDS011;6473;51.552;6.716;2022-11-20T03:10:05;12.07;;;9.37;;
12816;SDS011;6473;51.552;6.716;2022-11-20T03:12:32;14.47;;;9.47;;
12816;SDS011;6473;51.552;6.716;2022-11-20T03:15:01;16.00;;;9.67;;
12816;SDS011;6473;51.552;6.716;2022-11-20T03:17:28;14.60;;;10.17;;
12816;SDS011;6473;51.552;6.716;2022-11-20T03:19:56;12.47;;;9.47;;
12816;SDS011;6473;51.552;6.716;2022-11-20T03:22:22;13.93;;;10.30;;
12816;SDS011;6473;51.552;6.716;2022-11-20T03:24:50;13.80;;;9.87;;
12816;SDS011;6473;51.552;6.716;2022-11-20T03:27:17;13.17;;;10.27;;
12816;SDS011;6473;51.552;6.716;2022-11-20T03:29:44;14.57;;;11.00;;
12816;SDS011;6473;51.552;6.716;2022-11-20T03:32:13;16.20;;;10.53;;
12816;SDS011;6473;51.552;6.716;2022-11-20T03:34:39;14.90;;;9.50;;
12816;SDS011;6473;51.552;6.716;2022-11-20T03:37:07;14.10;;;10.03;;
12816;SDS011;6473;51.552;6.716;2022-11-20T03:39:34;15.10;;;10.57;;
12816;SDS011;6473;51.552;6.716;2022-11-20T03:42:01;14.07;;;10.17;;
12816;SDS011;6473;51.552;6.716;2022-11-20T03:44:49;15.23;;;10.17;;
12816;SDS011;6473;51.552;6.716;2022-11-20T03:47:17;13.00;;;9.40;;
12816;SDS011;6473;51.552;6.716;2022-11-20T03:49:44;14.03;;;10.07;;
12816;SDS011;6473;51.552;6.716;2022-11-20T03:52:11;18.77;;;10.40;;
12816;SDS011;6473;51.552;6.716;2022-11-20T03:54:38;16.87;;;10.67;;
12816;SDS011;6473;51.552;6.716;2022-11-20T03:57:05;15.33;;;10.60;;
12816;SDS011;6473;51.552;6.716;2022-11-20T03:59:33;15.07;;;10.23;;
12816;SDS011;6473;51.552;6.716;2022-11-20T04:02:00;15.23;;;10.43;;
12816;SDS011;6473;51.552;6.716;2022-11-20T04:04:28;13.70;;;10.23;;
12816;SDS011;6473;51.552;6.716;2022-11-20T04:06:55;13.27;;;9.07;;
12816;SDS011;6473;51.552;6.716;2022-11-20T04:09:22;15.50;;;9.97;;
12816;SDS011;6473;51.552;6.716;2022-11-20T04:11:49;13.67;;;10.13;;
12816;SDS011;6473;51.552;6.716;2022-11-20T04:14:16;14.17;;;10.57;;
12816;SDS011;6473;51.552;6.716;2022-11-20T04:16:43;15.77;;;9.83;;
12816;SDS011;6473;51.552;6.716;2022-11-20T04:19:11;14.07;;;10.53;;
12816;SDS011;6473;51.552;6.716;2022-11-20T04:21:41;15.83;;;10.83;;
12816;SDS011;6473;51.552;6.716;2022-11-20T04:24:08;15.03;;;10.27;;
12816;SDS011;6473;51.552;6.716;2022-11-20T04:26:36;16.30;;;11.30;;
12816;SDS011;6473;51.552;6.716;2022-11-20T04:29:03;15.30;;;11.33;;
12816;SDS011;6473;51.552;6.716;2022-11-20T04:31:32;15.00;;;11.10;;
12816;SDS011;6473;51.552;6.716;2022-11-20T04:34:00;13.03;;;10.70;;
12816;SDS011;6473;51.552;6.716;2022-11-20T04:36:28;14.20;;;10.73;;
12816;SDS011;6473;51.552;6.716;2022-11-20T04:38:58;14.47;;;10.37;;
12816;SDS011;6473;51.552;6.716;2022-11-20T04:41:27;13.77;;;10.17;;
12816;SDS011;6473;51.552;6.716;2022-11-20T04:43:56;15.03;;;10.23;;
12816;SDS011;6473;51.552;6.716;2022-11-20T04:46:27;14.13;;;9.87;;
12816;SDS011;6473;51.552;6.716;2022-11-20T04:48:55;12.97;;;10.07;;
12816;SDS011;6473;51.552;6.716;2022-11-20T04:51:23;14.93;;;10.73;;
12816;SDS011;6473;51.552;6.716;2022-11-20T04:53:50;14.80;;;10.67;;
12816;SDS011;6473;51.552;6.716;2022-11-20T04:56:18;16.33;;;11.13;;
12816;SDS011;6473;51.552;6.716;2022-11-20T04:58:45;14.80;;;10.77;;
12816;SDS011;6473;51.552;6.716;2022-11-20T05:01:13;14.87;;;11.17;;
12816;SDS011;6473;51.552;6.716;2022-11-20T05:03:42;16.27;;;10.53;;
12816;SDS011;6473;51.552;6.716;2022-11-20T05:06:10;16.30;;;10.83;;
12816;SDS011;6473;51.552;6.716;2022-11-20T05:08:38;16.10;;;10.57;;
12816;SDS011;6473;51.552;6.716;2022-11-20T05:11:06;14.43;;;10.37;;
12816;SDS011;6473;51.552;6.716;2022-11-20T05:13:35;14.10;;;10.30;;
12816;SDS011;6473;51.552;6.716;2022-11-20T05:16:03;12.87;;;9.90;;
12816;SDS011;6473;51.552;6.716;2022-11-20T05:18:31;16.00;;;10.63;;
12816;SDS011;6473;51.552;6.716;2022-11-20T05:20:59;13.60;;;10.00;;
12816;SDS011;6473;51.552;6.716;2022-11-20T05:23:28;13.93;;;10.70;;
12816;SDS011;6473;51.552;6.716;2022-11-20T05:25:56;14.90;;;10.70;;
12816;SDS011;6473;51.552;6.716;2022-11-20T05:28:24;16.23;;;12.13;;
12816;SDS011;6473;51.552;6.716;2022-11-20T05:30:54;15.17;;;10.47;;
12816;SDS011;6473;51.552;6.716;2022-11-20T05:33:21;14.53;;;10.60;;
12816;SDS011;6473;51.552;6.716;2022-11-20T05:35:48;16.43;;;10.83;;
12816;SDS011;6473;51.552;6.716;2022-11-20T05:38:15;14.33;;;9.67;;
12816;SDS011;6473;51.552;6.716;2022-11-20T05:40:42;13.77;;;10.57;;
12816;SDS011;6473;51.552;6.716;2022-11-20T05:43:09;14.07;;;10.53;;
12816;SDS011;6473;51.552;6.716;2022-11-20T05:45:37;15.23;;;10.53;;
12816;SDS011;6473;51.552;6.716;2022-11-20T05:48:05;14.70;;;10.53;;
12816;SDS011;6473;51.552;6.716;2022-11-20T05:50:32;13.93;;;10.40;;
12816;SDS011;6473;51.552;6.716;2022-11-20T05:52:59;15.97;;;10.00;;
12816;SDS011;6473;51.552;6.716;2022-11-20T05:55:27;15.23;;;10.50;;
12816;SDS011;6473;51.552;6.716;2022-11-20T05:57:54;16.60;;;10.70;;
12816;SDS011;6473;51.552;6.716;2022-11-20T06:00:21;13.70;;;10.00;;
12816;SDS011;6473;51.552;6.716;2022-11-20T06:02:48;15.27;;;10.80;;
12816;SDS011;6473;51.552;6.716;2022-11-20T06:05:17;17.80;;;11.70;;
12816;SDS011;6473;51.552;6.716;2022-11-20T06:07:43;17.73;;;11.63;;
12816;SDS011;6473;51.552;6.716;2022-11-20T06:10:11;15.77;;;11.37;;
12816;SDS011;6473;51.552;6.716;2022-11-20T06:12:38;16.13;;;11.27;;
12816;SDS011;6473;51.552;6.716;2022-11-20T06:15:05;17.03;;;11.13;;
12816;SDS011;6473;51.552;6.716;2022-11-20T06:17:33;14.53;;;10.90;;
12816;SDS011;6473;51.552;6.716;2022-11-20T06:20:00;16.73;;;11.30;;
12816;SDS011;6473;51.552;6.716;2022-11-20T06:22:28;16.13;;;10.37;;
12816;SDS011;6473;51.552;6.716;2022-11-20T06:24:55;18.53;;;11.13;;
12816;SDS011;6473;51.552;6.716;2022-11-20T06:27:22;17.53;;;11.80;;
12816;SDS011;6473;51.552;6.716;2022-11-20T06:29:49;14.70;;;10.33;;
12816;SDS011;6473;51.552;6.716;2022-11-20T06:32:16;16.70;;;11.17;;
12816;SDS011;6473;51.552;6.716;2022-11-20T06:34:43;14.50;;;10.17;;
12816;SDS011;6473;51.552;6.716;2022-11-20T06:37:11;16.43;;;11.13;;
12816;SDS011;6473;51.552;6.716;2022-11-20T06:39:39;17.10;;;11.80;;
12816;SDS011;6473;51.552;6.716;2022-11-20T06:42:05;16.63;;;11.30;;
12816;SDS011;6473;51.552;6.716;2022-11-20T06:44:34;14.80;;;11.00;;
12816;SDS011;6473;51.552;6.716;2022-11-20T06:47:01;15.40;;;10.60;;
12816;SDS011;6473;51.552;6.716;2022-11-20T06:49:28;14.93;;;10.67;;
12816;SDS011;6473;51.552;6.716;2022-11-20T06:51:55;16.13;;;10.27;;
12816;SDS011;6473;51.552;6.716;2022-11-20T06:54:22;14.43;;;10.77;;
12816;SDS011;6473;51.552;6.716;2022-11-20T06:56:50;16.63;;;11.27;;
12816;SDS011;6473;51.552;6.716;2022-11-20T06:59:17;19.27;;;12.30;;
12816;SDS011;6473;51.552;6.716;2022-11-20T07:01:44;16.93;;;11.63;;
12816;SDS011;6473;51.552;6.716;2022-11-20T07:04:12;19.90;;;12.27;;
12816;SDS011;6473;51.552;6.716;2022-11-20T07:06:39;15.97;;;11.50;;
12816;SDS011;6473;51.552;6.716;2022-11-20T07:09:06;16.97;;;11.50;;
12816;SDS011;6473;51.552;6.716;2022-11-20T07:11:33;20.03;;;12.27;;
12816;SDS011;6473;51.552;6.716;2022-11-20T07:14:02;18.67;;;12.53;;
12816;SDS011;6473;51.552;6.716;2022-11-20T07:16:29;18.77;;;12.67;;
12816;SDS011;6473;51.552;6.716;2022-11-20T07:18:56;17.60;;;12.10;;
12816;SDS011;6473;51.552;6.716;2022-11-20T07:21:23;17.53;;;11.57;;
12816;SDS011;6473;51.552;6.716;2022-11-20T07:23:50;16.07;;;11.17;;
12816;SDS011;6473;51.552;6.716;2022-11-20T07:26:17;17.97;;;11.33;;
12816;SDS011;6473;51.552;6.716;2022-11-20T07:28:45;19.80;;;11.53;;
12816;SDS011;6473;51.552;6.716;2022-11-20T07:31:13;16.37;;;11.97;;
12816;SDS011;6473;51.552;6.716;2022-11-20T07:33:40;17.20;;;11.17;;
12816;SDS011;6473;51.552;6.716;2022-11-20T07:36:08;16.87;;;10.63;;
12816;SDS011;6473;51.552;6.716;2022-11-20T07:38:36;16.10;;;11.77;;
12816;SDS011;6473;51.552;6.716;2022-11-20T07:41:03;16.73;;;11.47;;
12816;SDS011;6473;51.552;6.716;2022-11-20T07:43:31;17.83;;;11.40;;
12816;SDS011;6473;51.552;6.716;2022-11-20T07:45:59;18.77;;;12.20;;
12816;SDS011;6473;51.552;6.716;2022-11-20T07:48:27;16.10;;;10.87;;
12816;SDS011;6473;51.552;6.716;2022-11-20T07:50:55;15.87;;;10.70;;
12816;SDS011;6473;51.552;6.716;2022-11-20T07:53:26;19.17;;;13.33;;
12816;SDS011;6473;51.552;6.716;2022-11-20T07:55:54;17.20;;;12.03;;
12816;SDS011;6473;51.552;6.716;2022-11-20T07:58:22;18.50;;;11.10;;
12816;SDS011;6473;51.552;6.716;2022-11-20T08:00:53;15.67;;;11.57;;
12816;SDS011;6473;51.552;6.716;2022-11-20T08:03:20;18.67;;;11.87;;
12816;SDS011;6473;51.552;6.716;2022-11-20T08:06:00;20.33;;;12.40;;
12816;SDS011;6473;51.552;6.716;2022-11-20T08:08:28;20.83;;;12.70;;
12816;SDS011;6473;51.552;6.716;2022-11-20T08:10:56;18.23;;;12.53;;
12816;SDS011;6473;51.552;6.716;2022-11-20T08:13:45;19.23;;;13.40;;
12816;SDS011;6473;51.552;6.716;2022-11-20T08:16:29;19.97;;;13.23;;
12816;SDS011;6473;51.552;6.716;2022-11-20T08:18:57;21.67;;;14.33;;
12816;SDS011;6473;51.552;6.716;2022-11-20T08:21:26;21.50;;;13.10;;
12816;SDS011;6473;51.552;6.716;2022-11-20T08:23:54;20.63;;;14.33;;
12816;SDS011;6473;51.552;6.716;2022-11-20T08:26:22;19.53;;;13.73;;
12816;SDS011;6473;51.552;6.716;2022-11-20T08:28:53;22.77;;;14.70;;
12816;SDS011;6473;51.552;6.716;2022-11-20T08:31:20;18.77;;;13.00;;
12816;SDS011;6473;51.552;6.716;2022-11-20T08:33:48;18.40;;;13.30;;
12816;SDS011;6473;51.552;6.716;2022-11-20T08:36:16;23.50;;;14.30;;
12816;SDS011;6473;51.552;6.716;2022-11-20T08:38:48;17.47;;;13.63;;
12816;SDS011;6473;51.552;6.716;2022-11-20T08:41:18;20.50;;;14.30;;
12816;SDS011;6473;51.552;6.716;2022-11-20T08:43:53;16.47;;;12.80;;
12816;SDS011;6473;51.552;6.716;2022-11-20T08:46:21;20.90;;;14.03;;
12816;SDS011;6473;51.552;6.716;2022-11-20T08:48:51;20.10;;;14.17;;
12816;SDS011;6473;51.552;6.716;2022-11-20T08:51:19;17.73;;;13.97;;
12816;SDS011;6473;51.552;6.716;2022-11-20T08:53:50;17.83;;;13.20;;
12816;SDS011;6473;51.552;6.716;2022-11-20T08:56:18;16.90;;;12.90;;
12816;SDS011;6473;51.552;6.716;2022-11-20T08:58:47;18.97;;;12.90;;
12816;SDS011;6473;51.552;6.716;2022-11-20T09:01:17;18.90;;;12.93;;
12816;SDS011;6473;51.552;6.716;2022-11-20T09:03:45;15.47;;;12.63;;
12816;SDS011;6473;51.552;6.716;2022-11-20T09:06:13;16.40;;;13.43;;
12816;SDS011;6473;51.552;6.716;2022-11-20T09:08:41;18.27;;;12.80;;
12816;SDS011;6473;51.552;6.716;2022-11-20T09:11:10;19.70;;;14.63;;
12816;SDS011;6473;51.552;6.716;2022-11-20T09:13:38;20.13;;;14.83;;
12816;SDS011;6473;51.552;6.716;2022-11-20T09:16:05;21.53;;;13.90;;
12816;SDS011;6473;51.552;6.716;2022-11-20T09:18:35;20.23;;;14.53;;
12816;SDS011;6473;51.552;6.716;2022-11-20T09:21:04;17.33;;;13.03;;
12816;SDS011;6473;51.552;6.716;2022-11-20T09:23:35;21.23;;;14.10;;
12816;SDS011;6473;51.552;6.716;2022-11-20T09:26:03;18.27;;;13.87;;
12816;SDS011;6473;51.552;6.716;2022-11-20T09:28:31;19.27;;;13.73;;
12816;SDS011;6473;51.552;6.716;2022-11-20T09:30:59;22.67;;;14.23;;
12816;SDS011;6473;51.552;6.716;2022-11-20T09:33:26;21.07;;;15.30;;
12816;SDS011;6473;51.552;6.716;2022-11-20T09:35:54;21.30;;;14.70;;
12816;SDS011;6473;51.552;6.716;2022-11-20T09:38:21;18.37;;;13.60;;
12816;SDS011;6473;51.552;6.716;2022-11-20T09:40:51;17.33;;;13.57;;
12816;SDS011;6473;51.552;6.716;2022-11-20T09:43:25;18.53;;;13.93;;
12816;SDS011;6473;51.552;6.716;2022-11-20T09:46:06;20.10;;;14.03;;
12816;SDS011;6473;51.552;6.716;2022-11-20T09:51:41;22.27;;;13.60;;
12816;SDS011;6473;51.552;6.716;2022-11-20T09:54:18;18.10;;;14.23;;
12816;SDS011;6473;51.552;6.716;2022-11-20T09:56:47;20.13;;;13.60;;
12816;SDS011;6473;51.552;6.716;2022-11-20T09:59:22;17.07;;;13.80;;
12816;SDS011;6473;51.552;6.716;2022-11-20T10:01:59;18.48;;;13.85;;
12816;SDS011;6473;51.552;6.716;2022-11-20T10:04:38;20.75;;;13.88;;
12816;SDS011;6473;51.552;6.716;2022-11-20T10:07:16;16.50;;;11.38;;
12816;SDS011;6473;51.552;6.716;2022-11-20T10:09:50;24.13;;;16.98;;
12816;SDS011;6473;51.552;6.716;2022-11-20T10:12:22;13.88;;;11.38;;
12816;SDS011;6473;51.552;6.716;2022-11-20T10:15:01;13.20;;;10.45;;
12816;SDS011;6473;51.552;6.716;2022-11-20T10:20:37;9.52;;;7.78;;
12816;SDS011;6473;51.552;6.716;2022-11-20T10:26:21;9.60;;;7.73;;
12816;SDS011;6473;51.552;6.716;2022-11-20T10:29:01;9.97;;;8.40;;
12816;SDS011;6473;51.552;6.716;2022-11-20T10:31:36;13.13;;;9.60;;
12816;SDS011;6473;51.552;6.716;2022-11-20T10:34:07;10.60;;;9.07;;
12816;SDS011;6473;51.552;6.716;2022-11-20T10:36:44;13.60;;;9.97;;
12816;SDS011;6473;51.552;6.716;2022-11-20T10:39:16;12.50;;;9.57;;
12816;SDS011;6473;51.552;6.716;2022-11-20T10:41:50;11.70;;;9.87;;
12816;SDS011;6473;51.552;6.716;2022-11-20T10:44:19;13.27;;;10.30;;
12816;SDS011;6473;51.552;6.716;2022-11-20T10:47:01;12.48;;;9.93;;
12816;SDS011;6473;51.552;6.716;2022-11-20T10:49:30;14.20;;;10.53;;
12816;SDS011;6473;51.552;6.716;2022-11-20T10:52:00;14.17;;;10.53;;
12816;SDS011;6473;51.552;6.716;2022-11-20T10:54:36;11.93;;;10.10;;
12816;SDS011;6473;51.552;6.716;2022-11-20T10:57:12;12.67;;;10.37;;
12816;SDS011;6473;51.552;6.716;2022-11-20T10:59:50;13.20;;;9.97;;
12816;SDS011;6473;51.552;6.716;2022-11-20T11:02:31;12.50;;;9.83;;
12816;SDS011;6473;51.552;6.716;2022-11-20T11:05:05;14.47;;;10.67;;
12816;SDS011;6473;51.552;6.716;2022-11-20T11:07:40;13.90;;;10.83;;
12816;SDS011;6473;51.552;6.716;2022-11-20T11:10:14;13.47;;;10.73;;
12816;SDS011;6473;51.552;6.716;2022-11-20T11:12:44;13.57;;;10.53;;
12816;SDS011;6473;51.552;6.716;2022-11-20T11:15:14;15.77;;;11.90;;
12816;SDS011;6473;51.552;6.716;2022-11-20T11:17:52;14.93;;;11.27;;
12816;SDS011;6473;51.552;6.716;2022-11-20T11:20:21;16.33;;;12.07;;
12816;SDS011;6473;51.552;6.716;2022-11-20T11:22:50;17.75;;;12.13;;
12816;SDS011;6473;51.552;6.716;2022-11-20T11:25:23;17.47;;;12.80;;
12816;SDS011;6473;51.552;6.716;2022-11-20T11:27:55;16.30;;;11.93;;
12816;SDS011;6473;51.552;6.716;2022-11-20T11:30:24;16.30;;;12.30;;
12816;SDS011;6473;51.552;6.716;2022-11-20T11:33:02;17.70;;;12.67;;
12816;SDS011;6473;51.552;6.716;2022-11-20T11:35:32;17.80;;;13.15;;
12816;SDS011;6473;51.552;6.716;2022-11-20T11:38:03;19.63;;;13.10;;
12816;SDS011;6473;51.552;6.716;2022-11-20T11:40:33;18.58;;;12.15;;
12816;SDS011;6473;51.552;6.716;2022-11-20T11:43:05;19.45;;;13.48;;
12816;SDS011;6473;51.552;6.716;2022-11-20T11:46:08;18.20;;;12.43;;
12816;SDS011;6473;51.552;6.716;2022-11-20T11:48:54;18.80;;;12.83;;
12816;SDS011;6473;51.552;6.716;2022-11-20T11:51:23;17.50;;;12.43;;
12816;SDS011;6473;51.552;6.716;2022-11-20T11:53:54;18.38;;;12.98;;
12816;SDS011;6473;51.552;6.716;2022-11-20T11:56:25;18.63;;;13.30;;
12816;SDS011;6473;51.552;6.716;2022-11-20T11:58:59;18.87;;;13.10;;
12816;SDS011;6473;51.552;6.716;2022-11-20T12:01:32;16.53;;;13.10;;
12816;SDS011;6473;51.552;6.716;2022-11-20T12:04:10;19.77;;;14.23;;
12816;SDS011;6473;51.552;6.716;2022-11-20T12:06:47;18.40;;;13.00;;
12816;SDS011;6473;51.552;6.716;2022-11-20T12:09:23;20.27;;;14.63;;
12816;SDS011;6473;51.552;6.716;2022-11-20T12:11:55;23.27;;;15.13;;
12816;SDS011;6473;51.552;6.716;2022-11-20T12:14:40;21.33;;;14.57;;
12816;SDS011;6473;51.552;6.716;2022-11-20T12:17:12;19.90;;;14.00;;
12816;SDS011;6473;51.552;6.716;2022-11-20T12:19:43;20.17;;;14.47;;
12816;SDS011;6473;51.552;6.716;2022-11-20T12:22:18;20.33;;;14.77;;
12816;SDS011;6473;51.552;6.716;2022-11-20T12:24:59;21.67;;;14.03;;
12816;SDS011;6473;51.552;6.716;2022-11-20T12:27:47;24.83;;;16.13;;
12816;SDS011;6473;51.552;6.716;2022-11-20T12:30:38;22.23;;;14.83;;
12816;SDS011;6473;51.552;6.716;2022-11-20T12:33:24;20.57;;;14.60;;
12816;SDS011;6473;51.552;6.716;2022-11-20T12:36:19;18.73;;;13.63;;
12816;SDS011;6473;51.552;6.716;2022-11-20T12:39:02;18.13;;;13.53;;
12816;SDS011;6473;51.552;6.716;2022-11-20T12:41:51;17.63;;;12.33;;
12816;SDS011;6473;51.552;6.716;2022-11-20T12:45:02;19.00;;;12.17;;
12816;SDS011;6473;51.552;6.716;2022-11-20T12:47:44;17.03;;;12.67;;
12816;SDS011;6473;51.552;6.716;2022-11-20T12:50:29;16.57;;;11.90;;
12816;SDS011;6473;51.552;6.716;2022-11-20T12:53:06;19.83;;;12.23;;
12816;SDS011;6473;51.552;6.716;2022-11-20T12:55:44;17.90;;;11.80;;
12816;SDS011;6473;51.552;6.716;2022-11-20T12:58:17;18.67;;;13.30;;
12816;SDS011;6473;51.552;6.716;2022-11-20T13:00:55;17.20;;;10.97;;
12816;SDS011;6473;51.552;6.716;2022-11-20T13:06:15;18.67;;;12.63;;
12816;SDS011;6473;51.552;6.716;2022-11-20T13:08:43;17.80;;;11.57;;
12816;SDS011;6473;51.552;6.716;2022-11-20T13:11:20;18.63;;;12.33;;
12816;SDS011;6473;51.552;6.716;2022-11-20T13:13:56;19.97;;;12.20;;
12816;SDS011;6473;51.552;6.716;2022-11-20T13:16:36;19.63;;;13.27;;
12816;SDS011;6473;51.552;6.716;2022-11-20T13:19:09;17.20;;;11.87;;
12816;SDS011;6473;51.552;6.716;2022-11-20T13:21:40;17.47;;;10.50;;
12816;SDS011;6473;51.552;6.716;2022-11-20T13:24:20;17.70;;;12.60;;
12816;SDS011;6473;51.552;6.716;2022-11-20T13:27:17;16.90;;;11.27;;
12816;SDS011;6473;51.552;6.716;2022-11-20T13:29:46;19.17;;;11.50;;
12816;SDS011;6473;51.552;6.716;2022-11-20T13:32:29;19.63;;;12.33;;
12816;SDS011;6473;51.552;6.716;2022-11-20T13:34:59;17.30;;;12.00;;
12816;SDS011;6473;51.552;6.716;2022-11-20T13:37:30;19.27;;;12.37;;
12816;SDS011;6473;51.552;6.716;2022-11-20T13:40:22;18.87;;;12.20;;
12816;SDS011;6473;51.552;6.716;2022-11-20T13:42:56;18.73;;;12.20;;
12816;SDS011;6473;51.552;6.716;2022-11-20T13:45:28;20.30;;;12.30;;
12816;SDS011;6473;51.552;6.716;2022-11-20T13:47:57;19.83;;;12.60;;
12816;SDS011;6473;51.552;6.716;2022-11-20T13:50:37;18.63;;;12.27;;
12816;SDS011;6473;51.552;6.716;2022-11-20T13:53:14;18.77;;;12.07;;
12816;SDS011;6473;51.552;6.716;2022-11-20T13:55:59;18.97;;;11.43;;
12816;SDS011;6473;51.552;6.716;2022-11-20T13:58:40;19.50;;;12.17;;
12816;SDS011;6473;51.552;6.716;2022-11-20T14:01:16;20.07;;;12.50;;
12816;SDS011;6473;51.552;6.716;2022-11-20T14:03:46;21.57;;;13.23;;
12816;SDS011;6473;51.552;6.716;2022-11-20T14:06:16;19.37;;;12.60;;
12816;SDS011;6473;51.552;6.716;2022-11-20T14:08:52;21.20;;;12.90;;
12816;SDS011;6473;51.552;6.716;2022-11-20T14:11:22;21.00;;;13.30;;
12816;SDS011;6473;51.552;6.716;2022-11-20T14:13:53;21.83;;;13.53;;
12816;SDS011;6473;51.552;6.716;2022-11-20T14:16:22;21.40;;;14.47;;
12816;SDS011;6473;51.552;6.716;2022-11-20T14:18:51;25.00;;;15.47;;
12816;SDS011;6473;51.552;6.716;2022-11-20T14:21:25;20.87;;;14.03;;
12816;SDS011;6473;51.552;6.716;2022-11-20T14:24:02;23.60;;;14.73;;
12816;SDS011;6473;51.552;6.716;2022-11-20T14:26:38;25.47;;;14.73;;
12816;SDS011;6473;51.552;6.716;2022-11-20T14:29:12;25.47;;;15.03;;
12816;SDS011;6473;51.552;6.716;2022-11-20T14:31:40;22.43;;;14.83;;
12816;SDS011;6473;51.552;6.716;2022-11-20T14:34:10;22.70;;;13.80;;
12816;SDS011;6473;51.552;6.716;2022-11-20T14:36:42;22.20;;;14.40;;
12816;SDS011;6473;51.552;6.716;2022-11-20T14:39:12;24.87;;;14.60;;
12816;SDS011;6473;51.552;6.716;2022-11-20T14:41:50;26.70;;;15.67;;
12816;SDS011;6473;51.552;6.716;2022-11-20T14:44:19;25.80;;;15.43;;
12816;SDS011;6473;51.552;6.716;2022-11-20T14:46:50;26.60;;;15.07;;
12816;SDS011;6473;51.552;6.716;2022-11-20T14:49:18;25.57;;;15.80;;
12816;SDS011;6473;51.552;6.716;2022-11-20T14:51:46;24.03;;;15.30;;
12816;SDS011;6473;51.552;6.716;2022-11-20T14:54:14;26.60;;;14.87;;
12816;SDS011;6473;51.552;6.716;2022-11-20T14:56:53;24.57;;;15.70;;
12816;SDS011;6473;51.552;6.716;2022-11-20T14:59:23;29.00;;;15.93;;
12816;SDS011;6473;51.552;6.716;2022-11-20T15:01:55;25.37;;;14.77;;
12816;SDS011;6473;51.552;6.716;2022-11-20T15:04:24;26.90;;;15.27;;
12816;SDS011;6473;51.552;6.716;2022-11-20T15:06:51;28.07;;;15.63;;
12816;SDS011;6473;51.552;6.716;2022-11-20T15:09:20;29.13;;;16.20;;
12816;SDS011;6473;51.552;6.716;2022-11-20T15:11:52;27.00;;;15.57;;
12816;SDS011;6473;51.552;6.716;2022-11-20T15:14:21;25.87;;;15.97;;